SXS6PJ EDDL-LTAC
Flight info
| Callsign | SXS6PJ |
|---|---|
| Flight time | N/A |
| Altitude | 39000 |
| Route | DODEN7Z DODEN Y853 BOMBI DCT ESATI DCT BARSU DCT DEXIT DCT ARSIN DCT GITAS DCT INVED DCT RIXEN UA17 YAVRU |
| Aircraft | B738/M-SDE2E3FGHIRWXY/LB1 |
Departure
| Time | 2026-02-18 10:26 |
|---|---|
| Airport | Düsseldorf Airport (EDDL) |
Arrival
| Time | N/A |
|---|---|
| Airport | Esenboğa International Airport (LTAC) |
| Time | Latitude | Longitude | Altitude | Speed | Heading |
|---|---|---|---|---|---|
| 2026-02-18 09:22 | 51.27655 | 6.76153 | 130 ft | 0 kts | 79° |
| 2026-02-18 10:12 | 51.27655 | 6.76151 | 129 ft | 1 kts | 79° |
| 2026-02-18 10:13 | 51.27651 | 6.76126 | 125 ft | 3 kts | 75° |
| 2026-02-18 10:13 | 51.27636 | 6.76074 | 129 ft | 3 kts | 49° |
| 2026-02-18 10:13 | 51.27622 | 6.76055 | 124 ft | 3 kts | 13° |
| 2026-02-18 10:14 | 51.27605 | 6.76056 | 125 ft | 3 kts | 334° |
| 2026-02-18 10:14 | 51.27588 | 6.76070 | 129 ft | 2 kts | 332° |
| 2026-02-18 10:14 | 51.27585 | 6.76074 | 129 ft | 1 kts | 333° |
| 2026-02-18 10:17 | 51.27587 | 6.76072 | 129 ft | 2 kts | 333° |
| 2026-02-18 10:18 | 51.27619 | 6.76049 | 127 ft | 8 kts | 340° |
| 2026-02-18 10:18 | 51.27681 | 6.76040 | 126 ft | 9 kts | 1° |
| 2026-02-18 10:18 | 51.27746 | 6.76042 | 126 ft | 9 kts | 1° |
| 2026-02-18 10:18 | 51.27795 | 6.76044 | 127 ft | 6 kts | 0° |
| 2026-02-18 10:19 | 51.27830 | 6.76022 | 129 ft | 5 kts | 320° |
| 2026-02-18 10:19 | 51.27844 | 6.75968 | 126 ft | 5 kts | 277° |
| 2026-02-18 10:19 | 51.27845 | 6.75935 | 129 ft | 0 kts | 270° |
| 2026-02-18 10:19 | 51.27845 | 6.75934 | 129 ft | 1 kts | 270° |
| 2026-02-18 10:20 | 51.27845 | 6.75915 | 129 ft | 3 kts | 270° |
| 2026-02-18 10:20 | 51.27845 | 6.75911 | 129 ft | 0 kts | 270° |
| 2026-02-18 10:20 | 51.27845 | 6.75908 | 125 ft | 0 kts | 270° |
| 2026-02-18 10:20 | 51.27845 | 6.75906 | 129 ft | 0 kts | 270° |
| 2026-02-18 10:23 | 51.27845 | 6.75904 | 129 ft | 1 kts | 270° |
| 2026-02-18 10:23 | 51.27846 | 6.75866 | 127 ft | 6 kts | 277° |
| 2026-02-18 10:23 | 51.27857 | 6.75779 | 124 ft | 9 kts | 282° |
| 2026-02-18 10:23 | 51.27862 | 6.75683 | 125 ft | 9 kts | 273° |
| 2026-02-18 10:24 | 51.27891 | 6.75608 | 128 ft | 8 kts | 332° |
| 2026-02-18 10:24 | 51.27943 | 6.75567 | 128 ft | 8 kts | 334° |
| 2026-02-18 10:24 | 51.27975 | 6.75541 | 128 ft | 2 kts | 333° |
| 2026-02-18 10:24 | 51.27991 | 6.75528 | 123 ft | 3 kts | 334° |
| 2026-02-18 10:25 | 51.28025 | 6.75505 | 123 ft | 8 kts | 342° |
| 2026-02-18 10:25 | 51.28151 | 6.75599 | 126 ft | 21 kts | 52° |
| 2026-02-18 10:25 | 51.28392 | 6.76105 | 127 ft | 94 kts | 53° |
| 2026-02-18 10:26 | 51.28919 | 6.77206 | 153 ft | 150 kts | 54° |
| 2026-02-18 10:26 | 51.29564 | 6.78543 | 791 ft | 154 kts | 54° |
| 2026-02-18 10:26 | 51.30198 | 6.79905 | 1642 ft | 155 kts | 55° |
| 2026-02-18 10:26 | 51.30847 | 6.81284 | 2430 ft | 156 kts | 56° |
| 2026-02-18 10:27 | 51.31513 | 6.82693 | 3156 ft | 160 kts | 56° |
| 2026-02-18 10:27 | 51.32211 | 6.84170 | 3722 ft | 179 kts | 55° |
| 2026-02-18 10:27 | 51.33025 | 6.85893 | 4001 ft | 208 kts | 55° |
| 2026-02-18 10:27 | 51.33926 | 6.87875 | 4215 ft | 233 kts | 56° |
| 2026-02-18 10:28 | 51.34891 | 6.90120 | 4588 ft | 253 kts | 63° |
| 2026-02-18 10:28 | 51.35278 | 6.92844 | 5412 ft | 255 kts | 92° |
| 2026-02-18 10:28 | 51.35060 | 6.95700 | 6176 ft | 262 kts | 98° |
| 2026-02-18 10:28 | 51.34754 | 6.98585 | 6998 ft | 264 kts | 99° |
| 2026-02-18 10:29 | 51.34440 | 7.01493 | 7801 ft | 267 kts | 98° |
| 2026-02-18 10:29 | 51.33820 | 7.07429 | 9387 ft | 274 kts | 98° |
| 2026-02-18 10:29 | 51.33516 | 7.10413 | 10150 ft | 277 kts | 98° |
| 2026-02-18 10:30 | 51.33201 | 7.13508 | 10889 ft | 280 kts | 98° |
| 2026-02-18 10:30 | 51.32842 | 7.16568 | 11521 ft | 290 kts | 106° |
| 2026-02-18 10:30 | 51.31796 | 7.19363 | 12178 ft | 300 kts | 131° |
| 2026-02-18 10:30 | 51.30316 | 7.21802 | 12753 ft | 313 kts | 135° |
| 2026-02-18 10:31 | 51.28721 | 7.24275 | 13321 ft | 325 kts | 135° |
| 2026-02-18 10:31 | 51.27061 | 7.26833 | 13890 ft | 338 kts | 136° |
| 2026-02-18 10:31 | 51.25345 | 7.29491 | 14392 ft | 350 kts | 136° |
| 2026-02-18 10:31 | 51.23576 | 7.32253 | 14905 ft | 362 kts | 136° |
| 2026-02-18 10:32 | 51.21747 | 7.35121 | 15386 ft | 375 kts | 136° |
| 2026-02-18 10:32 | 51.19859 | 7.38092 | 15859 ft | 387 kts | 136° |
| 2026-02-18 10:32 | 51.17915 | 7.41149 | 16377 ft | 398 kts | 136° |
| 2026-02-18 10:32 | 51.15917 | 7.44287 | 16982 ft | 406 kts | 137° |
| 2026-02-18 10:33 | 51.13882 | 7.47447 | 17641 ft | 412 kts | 138° |
| 2026-02-18 10:33 | 51.09672 | 7.53865 | 18852 ft | 425 kts | 139° |
| 2026-02-18 10:33 | 51.07527 | 7.57129 | 19549 ft | 426 kts | 139° |
| 2026-02-18 10:34 | 51.05379 | 7.60397 | 20180 ft | 431 kts | 139° |
| 2026-02-18 10:34 | 51.03191 | 7.63725 | 20646 ft | 439 kts | 139° |
| 2026-02-18 10:34 | 51.00982 | 7.67086 | 21264 ft | 442 kts | 139° |
| 2026-02-18 10:34 | 50.98748 | 7.70480 | 21907 ft | 445 kts | 139° |
| 2026-02-18 10:35 | 50.96515 | 7.73818 | 22477 ft | 448 kts | 142° |
| 2026-02-18 10:35 | 50.93961 | 7.76750 | 23010 ft | 448 kts | 152° |
| 2026-02-18 10:35 | 50.91327 | 7.79290 | 23557 ft | 450 kts | 154° |
| 2026-02-18 10:35 | 50.88611 | 7.81818 | 24017 ft | 454 kts | 154° |
| 2026-02-18 10:36 | 50.85878 | 7.84373 | 24475 ft | 457 kts | 154° |
| 2026-02-18 10:36 | 50.83144 | 7.86975 | 24935 ft | 460 kts | 153° |
| 2026-02-18 10:36 | 50.82221 | 7.87864 | 25083 ft | 462 kts | 153° |
| 2026-02-18 10:37 | 50.74870 | 7.95038 | 26237 ft | 471 kts | 153° |
| 2026-02-18 10:37 | 50.69253 | 8.00534 | 26924 ft | 481 kts | 153° |
| 2026-02-18 10:37 | 50.66398 | 8.03323 | 27334 ft | 484 kts | 152° |
| 2026-02-18 10:38 | 50.63690 | 8.06534 | 27763 ft | 493 kts | 141° |
| 2026-02-18 10:38 | 50.61373 | 8.10568 | 28282 ft | 500 kts | 129° |
| 2026-02-18 10:38 | 50.59465 | 8.15170 | 28665 ft | 505 kts | 119° |
| 2026-02-18 10:38 | 50.57968 | 8.20195 | 28986 ft | 510 kts | 115° |
| 2026-02-18 10:39 | 50.56536 | 8.25313 | 29354 ft | 512 kts | 115° |
| 2026-02-18 10:39 | 50.55103 | 8.30444 | 29816 ft | 512 kts | 115° |
| 2026-02-18 10:39 | 50.53681 | 8.35495 | 30295 ft | 511 kts | 115° |
| 2026-02-18 10:39 | 50.52224 | 8.40600 | 30681 ft | 512 kts | 115° |
| 2026-02-18 10:40 | 50.50751 | 8.45707 | 30967 ft | 515 kts | 115° |
| 2026-02-18 10:40 | 50.49256 | 8.50845 | 31325 ft | 516 kts | 115° |
| 2026-02-18 10:40 | 50.47759 | 8.55966 | 31750 ft | 515 kts | 115° |
| 2026-02-18 10:40 | 50.46264 | 8.61061 | 32150 ft | 515 kts | 115° |
| 2026-02-18 10:41 | 50.44757 | 8.66186 | 32513 ft | 516 kts | 115° |
| 2026-02-18 10:41 | 50.42253 | 8.74686 | 33097 ft | 517 kts | 115° |
| 2026-02-18 10:41 | 50.40741 | 8.79809 | 33485 ft | 517 kts | 115° |
| 2026-02-18 10:42 | 50.39230 | 8.84918 | 33862 ft | 517 kts | 115° |
| 2026-02-18 10:42 | 50.37712 | 8.90040 | 34162 ft | 518 kts | 115° |
| 2026-02-18 10:42 | 50.36195 | 8.95151 | 34480 ft | 517 kts | 115° |
| 2026-02-18 10:42 | 50.34675 | 9.00257 | 34833 ft | 516 kts | 115° |
| 2026-02-18 10:43 | 50.33157 | 9.05348 | 35164 ft | 515 kts | 115° |
| 2026-02-18 10:43 | 50.31639 | 9.10428 | 35467 ft | 516 kts | 115° |
| 2026-02-18 10:43 | 50.30118 | 9.15506 | 35769 ft | 515 kts | 115° |
| 2026-02-18 10:43 | 50.28593 | 9.20587 | 36091 ft | 515 kts | 116° |
| 2026-02-18 10:44 | 50.27070 | 9.25651 | 36366 ft | 515 kts | 115° |
| 2026-02-18 10:44 | 50.25545 | 9.30713 | 36641 ft | 515 kts | 115° |
| 2026-02-18 10:44 | 50.24018 | 9.35770 | 36956 ft | 514 kts | 115° |
| 2026-02-18 10:44 | 50.22491 | 9.40813 | 37268 ft | 513 kts | 115° |
| 2026-02-18 10:45 | 50.20964 | 9.45850 | 37580 ft | 512 kts | 116° |
| 2026-02-18 10:45 | 50.17930 | 9.55826 | 38134 ft | 512 kts | 116° |
| 2026-02-18 10:45 | 50.16400 | 9.60840 | 38409 ft | 511 kts | 116° |
| 2026-02-18 10:46 | 50.14870 | 9.65844 | 38685 ft | 511 kts | 116° |
| 2026-02-18 10:46 | 50.13336 | 9.70849 | 38873 ft | 511 kts | 116° |
| 2026-02-18 10:46 | 50.11801 | 9.75851 | 38993 ft | 512 kts | 116° |
| 2026-02-18 10:47 | 50.08709 | 9.85890 | 38982 ft | 513 kts | 116° |
| 2026-02-18 10:47 | 50.05623 | 9.95872 | 38990 ft | 510 kts | 116° |
| 2026-02-18 10:48 | 50.02547 | 10.05782 | 38994 ft | 507 kts | 116° |
| 2026-02-18 10:48 | 49.99475 | 10.15642 | 39001 ft | 506 kts | 116° |
| 2026-02-18 10:49 | 49.96402 | 10.25464 | 38980 ft | 505 kts | 116° |
| 2026-02-18 10:49 | 49.91801 | 10.40099 | 39008 ft | 505 kts | 117° |
| 2026-02-18 10:50 | 49.88631 | 10.49844 | 39016 ft | 507 kts | 117° |
| 2026-02-18 10:50 | 49.85394 | 10.59611 | 39013 ft | 513 kts | 118° |
| 2026-02-18 10:51 | 49.82124 | 10.69462 | 38989 ft | 513 kts | 118° |
| 2026-02-18 10:51 | 49.78872 | 10.79262 | 38991 ft | 511 kts | 118° |
| 2026-02-18 10:52 | 49.75616 | 10.89052 | 38981 ft | 510 kts | 118° |
| 2026-02-18 10:52 | 49.72361 | 10.98797 | 38987 ft | 509 kts | 118° |
| 2026-02-18 10:53 | 49.67495 | 11.13294 | 38990 ft | 508 kts | 118° |
| 2026-02-18 10:54 | 49.64228 | 11.22982 | 38971 ft | 508 kts | 118° |
| 2026-02-18 10:54 | 49.60956 | 11.32644 | 38986 ft | 508 kts | 118° |
| 2026-02-18 10:55 | 49.57676 | 11.42296 | 38989 ft | 509 kts | 118° |
| 2026-02-18 10:55 | 49.54381 | 11.51953 | 38983 ft | 509 kts | 118° |
| 2026-02-18 10:56 | 49.51094 | 11.61552 | 38978 ft | 510 kts | 118° |
| 2026-02-18 10:56 | 49.47774 | 11.71213 | 38982 ft | 511 kts | 119° |
| 2026-02-18 10:57 | 49.44391 | 11.81018 | 38977 ft | 512 kts | 119° |
| 2026-02-18 10:57 | 49.39413 | 11.95378 | 38988 ft | 513 kts | 119° |
| 2026-02-18 10:58 | 49.36045 | 12.05049 | 38990 ft | 513 kts | 119° |
| 2026-02-18 10:58 | 49.32668 | 12.14708 | 38978 ft | 514 kts | 119° |
| 2026-02-18 10:59 | 49.29303 | 12.24298 | 38983 ft | 513 kts | 119° |
| 2026-02-18 10:59 | 49.25914 | 12.33918 | 38994 ft | 513 kts | 120° |
| 2026-02-18 11:00 | 49.22519 | 12.43522 | 38993 ft | 512 kts | 120° |
| 2026-02-18 11:00 | 49.19113 | 12.53121 | 39004 ft | 512 kts | 120° |
| 2026-02-18 11:01 | 49.13999 | 12.67466 | 38999 ft | 513 kts | 120° |
| 2026-02-18 11:02 | 49.10574 | 12.77027 | 38994 ft | 513 kts | 120° |
| 2026-02-18 11:02 | 49.07148 | 12.86559 | 38996 ft | 513 kts | 120° |
| 2026-02-18 11:03 | 49.03725 | 12.96046 | 39006 ft | 512 kts | 120° |
| 2026-02-18 11:03 | 49.00281 | 13.05558 | 38975 ft | 513 kts | 120° |
| 2026-02-18 11:04 | 48.96832 | 13.15049 | 38996 ft | 512 kts | 120° |
| 2026-02-18 11:04 | 48.93371 | 13.24537 | 38999 ft | 512 kts | 120° |
| 2026-02-18 11:05 | 48.89905 | 13.34005 | 39003 ft | 513 kts | 120° |
| 2026-02-18 11:05 | 48.84704 | 13.48152 | 39003 ft | 513 kts | 120° |
| 2026-02-18 11:06 | 48.81212 | 13.57607 | 38996 ft | 514 kts | 120° |
| 2026-02-18 11:06 | 48.77707 | 13.67069 | 39003 ft | 514 kts | 120° |
| 2026-02-18 11:07 | 48.74188 | 13.76534 | 38993 ft | 515 kts | 121° |
| 2026-02-18 11:07 | 48.70671 | 13.85977 | 39002 ft | 515 kts | 121° |
| 2026-02-18 11:08 | 48.67145 | 13.95418 | 38980 ft | 515 kts | 121° |
| 2026-02-18 11:08 | 48.63633 | 14.04792 | 38994 ft | 515 kts | 121° |
| 2026-02-18 11:09 | 48.58310 | 14.18934 | 39000 ft | 516 kts | 121° |
| 2026-02-18 11:10 | 48.54745 | 14.28361 | 38994 ft | 517 kts | 121° |
| 2026-02-18 11:10 | 48.51178 | 14.37762 | 39000 ft | 517 kts | 121° |
| 2026-02-18 11:11 | 48.47595 | 14.47171 | 39011 ft | 517 kts | 121° |
| 2026-02-18 11:11 | 48.44012 | 14.56546 | 39004 ft | 516 kts | 121° |
| 2026-02-18 11:12 | 48.40423 | 14.65904 | 38995 ft | 516 kts | 121° |
| 2026-02-18 11:12 | 48.36821 | 14.75261 | 38988 ft | 516 kts | 121° |
| 2026-02-18 11:13 | 48.33217 | 14.84593 | 38969 ft | 516 kts | 121° |
| 2026-02-18 11:13 | 48.27831 | 14.98477 | 39002 ft | 515 kts | 121° |
| 2026-02-18 11:14 | 48.24221 | 15.07741 | 39008 ft | 515 kts | 121° |
| 2026-02-18 11:14 | 48.20595 | 15.17017 | 39021 ft | 516 kts | 121° |
| 2026-02-18 11:15 | 48.16955 | 15.26293 | 39011 ft | 516 kts | 121° |
| 2026-02-18 11:15 | 48.13303 | 15.35569 | 39012 ft | 517 kts | 121° |
| 2026-02-18 11:16 | 48.09639 | 15.44844 | 39005 ft | 517 kts | 122° |
| 2026-02-18 11:16 | 48.05969 | 15.54103 | 39003 ft | 517 kts | 121° |
| 2026-02-18 11:17 | 48.00471 | 15.67913 | 39001 ft | 518 kts | 122° |
| 2026-02-18 11:18 | 47.96755 | 15.77205 | 39001 ft | 517 kts | 122° |
| 2026-02-18 11:18 | 47.93086 | 15.86349 | 39009 ft | 517 kts | 121° |
| 2026-02-18 11:19 | 47.89383 | 15.95545 | 39004 ft | 518 kts | 121° |
| 2026-02-18 11:19 | 47.85666 | 16.04750 | 38995 ft | 518 kts | 121° |
| 2026-02-18 11:20 | 47.81942 | 16.13936 | 38998 ft | 518 kts | 122° |
| 2026-02-18 11:20 | 47.78210 | 16.23113 | 39011 ft | 518 kts | 121° |
| 2026-02-18 11:21 | 47.74464 | 16.32293 | 39005 ft | 520 kts | 121° |
| 2026-02-18 11:21 | 47.68838 | 16.46020 | 38996 ft | 521 kts | 121° |
| 2026-02-18 11:22 | 47.65062 | 16.55196 | 38991 ft | 521 kts | 121° |
| 2026-02-18 11:22 | 47.61282 | 16.64354 | 38991 ft | 520 kts | 121° |
| 2026-02-18 11:23 | 47.57495 | 16.73498 | 38989 ft | 520 kts | 122° |
| 2026-02-18 11:23 | 47.53959 | 16.82829 | 38998 ft | 519 kts | 117° |
| 2026-02-18 11:24 | 47.50662 | 16.92332 | 38996 ft | 519 kts | 116° |
| 2026-02-18 11:24 | 47.47367 | 17.01817 | 38995 ft | 518 kts | 117° |
| 2026-02-18 11:25 | 47.42387 | 17.15873 | 39003 ft | 516 kts | 117° |
| 2026-02-18 11:26 | 47.39036 | 17.25240 | 39014 ft | 515 kts | 117° |
| 2026-02-18 11:26 | 47.35689 | 17.34567 | 39023 ft | 514 kts | 117° |
| 2026-02-18 11:27 | 47.32340 | 17.43874 | 39015 ft | 512 kts | 117° |
| 2026-02-18 11:27 | 47.29000 | 17.53129 | 38997 ft | 511 kts | 117° |
| 2026-02-18 11:28 | 47.25659 | 17.62352 | 39007 ft | 510 kts | 117° |
| 2026-02-18 11:28 | 47.22879 | 17.70001 | 39008 ft | 509 kts | 117° |
| 2026-02-18 11:29 | 47.19535 | 17.79175 | 39006 ft | 509 kts | 118° |
| 2026-02-18 11:29 | 47.14509 | 17.92900 | 38989 ft | 508 kts | 118° |
| 2026-02-18 11:30 | 47.11150 | 18.02037 | 39003 ft | 509 kts | 118° |
| 2026-02-18 11:30 | 47.07780 | 18.11176 | 38992 ft | 509 kts | 118° |
| 2026-02-18 11:31 | 47.04391 | 18.20298 | 38984 ft | 510 kts | 119° |
| 2026-02-18 11:31 | 47.00896 | 18.29335 | 38979 ft | 510 kts | 120° |
| 2026-02-18 11:32 | 46.97381 | 18.38293 | 38991 ft | 510 kts | 120° |
| 2026-02-18 11:32 | 46.93853 | 18.47292 | 38979 ft | 509 kts | 120° |
| 2026-02-18 11:33 | 46.88578 | 18.60753 | 38979 ft | 507 kts | 120° |
| 2026-02-18 11:34 | 46.85062 | 18.69697 | 38987 ft | 507 kts | 120° |
| 2026-02-18 11:34 | 46.81542 | 18.78616 | 38983 ft | 507 kts | 120° |
| 2026-02-18 11:35 | 46.78017 | 18.87521 | 38972 ft | 506 kts | 120° |
| 2026-02-18 11:35 | 46.74489 | 18.96401 | 38984 ft | 505 kts | 120° |
| 2026-02-18 11:36 | 46.70979 | 19.05208 | 38990 ft | 505 kts | 120° |
| 2026-02-18 11:36 | 46.67442 | 19.14052 | 38976 ft | 504 kts | 120° |
| 2026-02-18 11:37 | 46.63910 | 19.22859 | 38974 ft | 503 kts | 120° |
| 2026-02-18 11:37 | 46.58607 | 19.36026 | 38984 ft | 502 kts | 121° |
| 2026-02-18 11:38 | 46.55063 | 19.44792 | 38978 ft | 502 kts | 121° |
| 2026-02-18 11:38 | 46.51515 | 19.53537 | 38979 ft | 502 kts | 121° |
| 2026-02-18 11:39 | 46.47960 | 19.62275 | 38976 ft | 503 kts | 121° |
| 2026-02-18 11:39 | 46.44410 | 19.70971 | 38985 ft | 504 kts | 121° |
| 2026-02-18 11:40 | 46.40825 | 19.79725 | 38982 ft | 506 kts | 121° |
| 2026-02-18 11:40 | 46.37213 | 19.88516 | 38982 ft | 507 kts | 121° |
| 2026-02-18 11:41 | 46.31779 | 20.01693 | 38974 ft | 509 kts | 121° |
| 2026-02-18 11:42 | 46.28132 | 20.10499 | 38972 ft | 510 kts | 121° |
| 2026-02-18 11:42 | 46.24479 | 20.19293 | 38972 ft | 510 kts | 121° |
| 2026-02-18 11:43 | 46.20841 | 20.28026 | 38968 ft | 510 kts | 121° |
| 2026-02-18 11:43 | 46.17176 | 20.36800 | 38987 ft | 509 kts | 121° |
| 2026-02-18 11:44 | 46.13510 | 20.45537 | 38972 ft | 508 kts | 121° |
| 2026-02-18 11:44 | 46.09842 | 20.54242 | 38966 ft | 508 kts | 121° |
| 2026-02-18 11:45 | 46.06194 | 20.62876 | 38971 ft | 507 kts | 121° |
| 2026-02-18 11:45 | 46.00682 | 20.75879 | 38971 ft | 506 kts | 121° |
| 2026-02-18 11:46 | 45.97007 | 20.84515 | 38963 ft | 506 kts | 121° |
| 2026-02-18 11:46 | 45.93328 | 20.93134 | 38967 ft | 505 kts | 122° |
| 2026-02-18 11:47 | 45.89646 | 21.01735 | 38978 ft | 505 kts | 122° |
| 2026-02-18 11:47 | 45.85966 | 21.10303 | 38963 ft | 504 kts | 122° |
| 2026-02-18 11:48 | 45.82281 | 21.18857 | 38964 ft | 503 kts | 122° |
| 2026-02-18 11:48 | 45.78631 | 21.27305 | 38968 ft | 502 kts | 122° |
| 2026-02-18 11:49 | 45.73102 | 21.40051 | 38964 ft | 501 kts | 122° |
| 2026-02-18 11:50 | 45.69418 | 21.48513 | 38962 ft | 501 kts | 122° |
| 2026-02-18 11:50 | 45.65728 | 21.56963 | 38969 ft | 500 kts | 122° |
| 2026-02-18 11:51 | 45.62033 | 21.65400 | 38979 ft | 500 kts | 122° |
| 2026-02-18 11:51 | 45.58362 | 21.73756 | 38981 ft | 500 kts | 122° |
| 2026-02-18 11:52 | 45.54662 | 21.82154 | 38983 ft | 499 kts | 122° |
| 2026-02-18 11:52 | 45.50961 | 21.90528 | 38986 ft | 499 kts | 122° |
| 2026-02-18 11:53 | 45.47260 | 21.98877 | 38990 ft | 497 kts | 122° |
| 2026-02-18 11:53 | 45.41720 | 22.11330 | 38983 ft | 495 kts | 122° |
| 2026-02-18 11:54 | 45.38024 | 22.19606 | 38974 ft | 493 kts | 122° |
| 2026-02-18 11:54 | 45.34370 | 22.27767 | 38983 ft | 491 kts | 122° |
| 2026-02-18 11:55 | 45.30696 | 22.35948 | 38954 ft | 491 kts | 122° |
| 2026-02-18 11:55 | 45.27020 | 22.44109 | 38955 ft | 489 kts | 122° |
| 2026-02-18 11:56 | 45.23349 | 22.52236 | 38930 ft | 489 kts | 122° |
| 2026-02-18 11:56 | 45.19672 | 22.60353 | 38900 ft | 488 kts | 123° |
| 2026-02-18 11:57 | 45.14178 | 22.72440 | 38875 ft | 485 kts | 123° |
| 2026-02-18 11:58 | 45.10514 | 22.80470 | 38867 ft | 484 kts | 123° |
| 2026-02-18 11:58 | 45.06859 | 22.88461 | 38849 ft | 484 kts | 123° |
| 2026-02-18 11:59 | 45.03199 | 22.96437 | 38833 ft | 483 kts | 123° |
| 2026-02-18 11:59 | 44.99535 | 23.04400 | 38829 ft | 483 kts | 123° |
| 2026-02-18 12:00 | 44.95889 | 23.12305 | 38831 ft | 483 kts | 123° |
| 2026-02-18 12:00 | 44.92210 | 23.20258 | 38823 ft | 485 kts | 123° |
| 2026-02-18 12:01 | 44.88508 | 23.28237 | 38822 ft | 486 kts | 123° |
| 2026-02-18 12:01 | 44.82928 | 23.40223 | 38825 ft | 488 kts | 123° |
| 2026-02-18 12:02 | 44.79189 | 23.48227 | 38820 ft | 489 kts | 124° |
| 2026-02-18 12:02 | 44.75469 | 23.56167 | 38801 ft | 489 kts | 124° |
| 2026-02-18 12:03 | 44.71726 | 23.64137 | 38799 ft | 488 kts | 124° |
| 2026-02-18 12:03 | 44.67981 | 23.72086 | 38798 ft | 487 kts | 124° |